Huvudsida
METAR-TAF:

METAR-TAF

Flygplatser :

Noi Bai internationella flygplats

Hanoi, Vietnam

latitud: 21-01N, longitud: 105-48E, höjd: 6 m

Aktuellt väderrapport

Denna rapport gjordes för 21 minuter sedan, klockan 11:30 UTC
Vind 8 kt från sydost
Temperatur 30°C
Fuktighet 70%
Tryck 1005 hPa
Sikt 10 km eller mer
Spridda moln på en höjd av 4700 ft

METAR: VVNB 251130Z 13008KT 9999 SCT047 30/24 Q1005 NOSIG

Tid: 18:51 (11:51 UTC)

Väderprognos

Denna rapport gjordes för 51 minuter sedan, klockan 11:00 UTC
Prognos gäller från 25 kl. 12 UTC till 26 kl. 12 UTC
Vind 8 kt från ost
Sikt 10 km eller mer
Få moln på en höjd av 3000 ft
Blir
från 25 kl. 18 UTC till 25 kl. 19 UTC
Sikt: 4000 m
fuktdis
Blir
från 26 kl. 00 UTC till 26 kl. 01 UTC
Sikt: 7000 m

TAF: VVNB 251100Z 2512/2612 10008KT 9999 FEW030 BECMG 2518/2519 4000 BR BECMG 2600/2601 7000 NSW

Aktuella väderrapporter och prognoser från 4000 flygplatser (METAR- och TAF-rapporter).

De tillgängliga stationerna syns som gula och röda prickar på kartan.

För musen över prickarna för att se namnen på stationerna.

Klicka sedan för att få väderrapporter och prognoser.

För att ändra kartan: Klicka på de gröna knapparna med ett svart kors på för att zooma in; den gröna knappen med ett streck på för att zooma ut; eller på de gröna pilarna för angränsande kartor.


METAR-TAF: